Time;durP1;ratioP1;P1;durP2;ratioP2;P2;SDS_P1;SDS_P2;PMS_P1;PMS_P2;Temp;Humidity;BMP_temperature;BMP_pressure;BME280_temperature;BME280_humidity;BME280_pressure;Samples;Min_cycle;Max_cycle;Signal;HPM_P1;HPM_P2
2022/01/07 00:00:46;;;;;;;22.00;9.80;;;-1.20;99.90;;;;;;1967995;70;21051;-68
2022/01/07 00:03:11;;;;;;;19.77;10.50;;;-1.10;99.90;;;;;;1979571;71;21508;-70
2022/01/07 00:05:37;;;;;;;16.65;9.90;;;-1.10;99.90;;;;;;1974367;71;21486;-70
2022/01/07 00:08:03;;;;;;;15.80;8.63;;;-1.10;99.90;;;;;;1981527;71;21449;-70
2022/01/07 00:10:29;;;;;;;15.63;10.05;;;-1.10;99.90;;;;;;1973491;72;21467;-70
2022/01/07 00:12:55;;;;;;;16.90;9.68;;;-1.10;99.90;;;;;;1972999;70;21636;-70
2022/01/07 00:15:22;;;;;;;15.98;9.50;;;-1.10;99.90;;;;;;1973285;71;21511;-69
2022/01/07 00:17:48;;;;;;;20.15;9.40;;;-1.20;99.90;;;;;;1975352;70;21066;-69
2022/01/07 00:20:14;;;;;;;21.23;9.43;;;-1.20;99.90;;;;;;1972344;71;21050;-70
2022/01/07 00:22:40;;;;;;;16.52;9.60;;;-1.20;99.90;;;;;;1967858;71;21231;-72
2022/01/07 00:25:06;;;;;;;17.37;9.63;;;-1.20;99.90;;;;;;1976716;70;21055;-71
2022/01/07 00:27:32;;;;;;;19.73;9.60;;;-1.20;99.90;;;;;;1973029;70;21055;-72
2022/01/07 00:29:59;;;;;;;19.73;9.80;;;-1.20;99.90;;;;;;1976477;72;21190;-69
2022/01/07 00:32:25;;;;;;;21.52;10.68;;;-1.30;99.90;;;;;;1984235;70;21133;-69
2022/01/07 00:34:51;;;;;;;18.17;10.58;;;-1.30;99.90;;;;;;1977168;72;21071;-69
2022/01/07 00:37:17;;;;;;;21.57;10.43;;;-1.40;99.90;;;;;;1976335;72;21453;-70
2022/01/07 00:39:45;;;;;;;17.90;10.43;;;-1.30;99.90;;;;;;1974341;71;21456;-69
2022/01/07 00:42:11;;;;;;;20.45;9.95;;;-1.40;99.90;;;;;;1973644;71;21161;-70
2022/01/07 00:44:37;;;;;;;23.12;10.08;;;-1.40;99.90;;;;;;1971789;71;21129;-70
2022/01/07 00:47:03;;;;;;;24.32;11.50;;;-1.40;99.90;;;;;;1975726;72;21247;-69
2022/01/07 00:49:30;;;;;;;15.58;10.23;;;-1.40;99.90;;;;;;1971653;70;21055;-69
2022/01/07 00:51:58;;;;;;;20.17;10.38;;;-1.40;99.90;;;;;;1970718;70;21091;-71
2022/01/07 00:54:24;;;;;;;20.52;10.35;;;-1.40;99.90;;;;;;1973507;72;21182;-70
2022/01/07 00:56:50;;;;;;;23.10;10.60;;;-1.50;99.90;;;;;;1962913;71;21084;-70
2022/01/07 00:59:16;;;;;;;15.90;10.23;;;-1.50;99.90;;;;;;1968312;71;21122;-71
2022/01/07 01:01:42;;;;;;;25.77;11.25;;;-1.50;99.90;;;;;;1974477;70;21055;-71
2022/01/07 01:04:08;;;;;;;17.50;9.98;;;-1.60;99.90;;;;;;1973020;70;21055;-70
2022/01/07 01:06:34;;;;;;;28.07;11.22;;;-1.50;99.90;;;;;;1972769;70;21471;-70
2022/01/07 01:09:01;;;;;;;22.30;10.28;;;-1.40;99.90;;;;;;1964172;71;21111;-70
2022/01/07 01:11:27;;;;;;;17.57;10.10;;;-1.50;99.90;;;;;;1984609;71;21058;-70
2022/01/07 01:13:53;;;;;;;18.85;10.20;;;-1.40;99.90;;;;;;1972508;71;21072;-71
2022/01/07 01:16:19;;;;;;;23.77;10.35;;;-1.50;99.90;;;;;;1979454;72;21196;-70
2022/01/07 01:18:45;;;;;;;21.30;9.83;;;-1.60;99.90;;;;;;1974182;72;21044;-70
2022/01/07 01:21:11;;;;;;;17.37;10.53;;;-1.60;99.90;;;;;;1977443;71;21057;-70
2022/01/07 01:23:39;;;;;;;16.55;10.45;;;-1.60;99.90;;;;;;1975042;72;21024;-70
2022/01/07 01:26:05;;;;;;;17.85;10.08;;;-1.60;99.90;;;;;;1978824;71;21062;-71
2022/01/07 01:28:31;;;;;;;16.20;10.08;;;-1.60;99.90;;;;;;1985214;72;21043;-69
2022/01/07 01:30:57;;;;;;;19.50;9.53;;;-1.70;99.90;;;;;;1975254;70;21072;-70
2022/01/07 01:33:23;;;;;;;18.12;10.30;;;-1.60;99.90;;;;;;1989891;70;21112;-71
2022/01/07 01:35:49;;;;;;;14.07;9.53;;;-1.60;99.90;;;;;;1966977;70;21165;-71
2022/01/07 01:38:16;;;;;;;16.85;10.23;;;-1.60;99.90;;;;;;1965756;72;21051;-70
2022/01/07 01:40:42;;;;;;;21.45;9.80;;;-1.70;99.90;;;;;;1981010;72;21117;-71
2022/01/07 01:43:08;;;;;;;17.87;10.15;;;-1.70;99.90;;;;;;1979682;70;21193;-69
2022/01/07 01:45:34;;;;;;;18.85;10.80;;;-1.80;99.90;;;;;;1965675;71;21158;-69
2022/01/07 01:48:00;;;;;;;16.95;9.90;;;-1.80;99.90;;;;;;1965823;73;21153;-68
2022/01/07 01:50:26;;;;;;;24.40;10.72;;;-1.90;99.90;;;;;;1972472;71;21079;-70
2022/01/07 01:52:57;;;;;;;15.65;10.58;;;-1.90;99.90;;;;;;1971510;70;21467;-69
2022/01/07 01:55:20;;;;;;;21.23;11.88;;;-1.90;99.90;;;;;;1968332;71;21150;-70
2022/01/07 01:57:46;;;;;;;23.85;10.40;;;-1.90;99.90;;;;;;1969387;71;21079;-70
2022/01/07 02:00:12;;;;;;;18.50;10.65;;;-1.90;99.90;;;;;;1969615;71;21041;-69
2022/01/07 02:02:38;;;;;;;18.35;11.40;;;-2.00;99.90;;;;;;1976580;72;21125;-69
2022/01/07 02:05:05;;;;;;;17.65;11.12;;;-2.00;99.90;;;;;;1972075;70;21137;-69
2022/01/07 02:07:31;;;;;;;17.95;11.63;;;-2.00;99.90;;;;;;1973132;71;21052;-70
2022/01/07 02:09:57;;;;;;;21.93;12.20;;;-2.10;99.90;;;;;;1971937;70;21132;-70
2022/01/07 02:12:23;;;;;;;22.75;12.30;;;-2.10;99.90;;;;;;1979259;72;21087;-69
2022/01/07 02:14:49;;;;;;;24.80;12.63;;;-2.10;99.90;;;;;;1981469;72;21137;-70
2022/01/07 02:17:15;;;;;;;18.35;11.85;;;-2.10;99.90;;;;;;1971712;70;21157;-71
2022/01/07 02:19:41;;;;;;;21.00;11.28;;;-2.00;99.90;;;;;;1973219;72;21589;-71
2022/01/07 02:22:07;;;;;;;20.20;12.05;;;-2.10;99.90;;;;;;1969969;70;21467;-72
2022/01/07 02:24:35;;;;;;;24.60;12.98;;;-2.10;99.90;;;;;;1979071;72;21494;-71
2022/01/07 02:27:01;;;;;;;17.98;11.35;;;-2.00;99.90;;;;;;1981576;72;21074;-69
2022/01/07 02:29:27;;;;;;;21.15;11.35;;;-2.10;99.90;;;;;;1971212;72;21068;-71
2022/01/07 02:31:53;;;;;;;27.62;12.50;;;-2.10;99.90;;;;;;1972128;70;21161;-69
2022/01/07 02:34:20;;;;;;;18.87;11.78;;;-2.10;99.90;;;;;;1986282;71;21269;-69
2022/01/07 02:36:46;;;;;;;21.25;11.12;;;-2.10;99.90;;;;;;1968566;72;21212;-69
2022/01/07 02:39:12;;;;;;;17.50;10.65;;;-2.10;99.90;;;;;;1973088;70;21456;-71
2022/01/07 02:41:38;;;;;;;17.10;10.85;;;-2.00;99.90;;;;;;1972982;70;21075;-69
2022/01/07 02:44:04;;;;;;;16.27;10.10;;;-1.90;99.90;;;;;;1973155;72;21125;-70
2022/01/07 02:46:30;;;;;;;19.98;10.30;;;-1.90;99.90;;;;;;1972522;70;21188;-70
2022/01/07 02:48:57;;;;;;;18.10;10.70;;;-2.00;99.90;;;;;;1982603;70;21104;-70
2022/01/07 02:51:24;;;;;;;18.87;10.32;;;-2.00;99.90;;;;;;1974862;70;21071;-70
2022/01/07 02:53:50;;;;;;;17.82;9.78;;;-1.90;99.90;;;;;;1968263;70;21182;-69
2022/01/07 02:56:16;;;;;;;16.55;10.00;;;-1.90;99.90;;;;;;1976836;72;21480;-71
2022/01/07 02:58:42;;;;;;;15.90;9.83;;;-2.00;99.90;;;;;;1972890;72;21479;-71
2022/01/07 03:01:08;;;;;;;15.80;10.50;;;-1.90;99.90;;;;;;1975137;70;21433;-70
2022/01/07 03:03:34;;;;;;;16.62;10.35;;;-1.90;99.90;;;;;;1977211;72;21488;-70
2022/01/07 03:06:00;;;;;;;17.02;9.65;;;-2.00;99.90;;;;;;1963157;71;21508;-70
2022/01/07 03:08:26;;;;;;;20.02;10.28;;;-1.90;99.90;;;;;;1970757;72;21484;-69
2022/01/07 03:10:53;;;;;;;19.00;10.75;;;-1.90;99.90;;;;;;1969781;70;21137;-70
2022/01/07 03:13:20;;;;;;;14.43;9.60;;;-1.90;99.90;;;;;;1979847;71;21075;-69
2022/01/07 03:15:46;;;;;;;14.55;10.10;;;-1.90;99.90;;;;;;1971403;71;21072;-70
2022/01/07 03:18:12;;;;;;;18.50;10.03;;;-1.90;99.90;;;;;;1971470;71;21231;-68
2022/01/07 03:20:38;;;;;;;13.58;8.98;;;-1.90;99.90;;;;;;1972391;70;21067;-69
2022/01/07 03:23:04;;;;;;;14.33;9.00;;;-1.90;99.90;;;;;;1973005;71;21063;-71
2022/01/07 03:25:30;;;;;;;17.85;9.85;;;-1.90;99.90;;;;;;1964009;70;21230;-70
2022/01/07 03:27:57;;;;;;;17.92;9.23;;;-2.00;99.90;;;;;;1976857;72;21056;-70
2022/01/07 03:30:26;;;;;;;12.10;8.83;;;-2.00;99.90;;;;;;1963243;70;21123;-71
2022/01/07 03:32:52;;;;;;;18.57;9.05;;;-1.90;99.90;;;;;;1971627;71;21058;-71
2022/01/07 03:35:18;;;;;;;22.42;9.40;;;-1.90;99.90;;;;;;1983813;70;21209;-70
2022/01/07 03:37:44;;;;;;;16.97;9.45;;;-2.00;99.90;;;;;;1971506;70;21076;-71
2022/01/07 03:40:10;;;;;;;18.62;9.48;;;-1.90;99.90;;;;;;1972342;71;21088;-71
2022/01/07 03:42:39;;;;;;;21.20;9.68;;;-2.00;99.90;;;;;;1967312;70;21129;-70
2022/01/07 03:45:05;;;;;;;15.88;9.83;;;-2.10;99.90;;;;;;1974216;71;21035;-70
2022/01/07 03:47:31;;;;;;;17.50;10.00;;;-2.20;99.90;;;;;;1978993;70;21054;-71
2022/01/07 03:49:58;;;;;;;15.03;9.83;;;-2.20;99.90;;;;;;1970930;72;21043;-71
2022/01/07 03:52:24;;;;;;;12.43;8.65;;;-2.10;99.90;;;;;;1966645;70;21045;-70
2022/01/07 03:54:50;;;;;;;14.75;10.08;;;-2.10;99.90;;;;;;1971660;71;21164;-70
2022/01/07 03:57:17;;;;;;;16.05;9.58;;;-2.10;99.90;;;;;;1972528;71;21507;-70
2022/01/07 03:59:43;;;;;;;17.45;9.25;;;-2.10;99.90;;;;;;1977148;71;21499;-70
2022/01/07 04:02:09;;;;;;;17.95;9.93;;;-2.10;99.90;;;;;;1972983;70;21453;-70
2022/01/07 04:04:35;;;;;;;16.15;8.83;;;-2.20;99.90;;;;;;1968867;72;21467;-69
2022/01/07 04:07:01;;;;;;;18.20;8.95;;;-2.10;99.90;;;;;;1978222;71;21491;-70
2022/01/07 04:09:27;;;;;;;13.13;8.70;;;-2.00;99.90;;;;;;1977399;71;21479;-70
2022/01/07 04:11:53;;;;;;;13.48;9.00;;;-2.10;99.90;;;;;;1973130;71;21040;-69
2022/01/07 04:14:20;;;;;;;19.07;8.83;;;-2.10;99.90;;;;;;1978667;72;21109;-70
2022/01/07 04:16:46;;;;;;;14.25;8.03;;;-2.00;99.90;;;;;;1988862;71;21084;-69
2022/01/07 04:19:12;;;;;;;18.12;8.48;;;-2.00;99.90;;;;;;1984574;72;21116;-70
2022/01/07 04:21:38;;;;;;;17.00;8.15;;;-2.10;99.90;;;;;;1970779;71;21108;-70
2022/01/07 04:24:04;;;;;;;15.28;8.30;;;-2.20;99.90;;;;;;1976203;72;21051;-70
2022/01/07 04:26:30;;;;;;;12.82;8.65;;;-2.10;99.90;;;;;;1973602;72;21107;-70
2022/01/07 04:28:56;;;;;;;12.90;7.53;;;-2.10;99.90;;;;;;1975754;71;21061;-70
2022/01/07 04:31:22;;;;;;;15.48;8.68;;;-2.20;99.90;;;;;;1978670;70;21149;-69
2022/01/07 04:33:49;;;;;;;14.83;9.48;;;-2.20;99.90;;;;;;1976323;70;21054;-69
2022/01/07 04:36:15;;;;;;;14.50;8.48;;;-2.10;99.90;;;;;;1966472;72;21130;-69
2022/01/07 04:38:41;;;;;;;14.28;7.90;;;-2.10;99.90;;;;;;1974322;71;21561;-71
2022/01/07 04:41:07;;;;;;;18.80;9.00;;;-2.20;99.90;;;;;;1977258;70;21540;-71
2022/01/07 04:43:33;;;;;;;17.05;8.13;;;-2.00;99.90;;;;;;1975268;70;21467;-71
2022/01/07 04:45:59;;;;;;;14.30;8.33;;;-2.10;99.90;;;;;;1976848;72;21574;-69
2022/01/07 04:48:25;;;;;;;20.17;8.63;;;-2.00;99.90;;;;;;1964226;71;21098;-71
2022/01/07 04:50:51;;;;;;;15.00;7.95;;;-2.00;99.90;;;;;;1975303;70;21054;-69
2022/01/07 04:53:18;;;;;;;13.03;8.25;;;-2.00;99.90;;;;;;1990637;71;21048;-69
2022/01/07 04:55:44;;;;;;;16.32;7.60;;;-1.90;99.90;;;;;;1979304;70;21050;-69
2022/01/07 04:58:10;;;;;;;16.48;8.18;;;-1.90;99.90;;;;;;1961476;72;21542;-69
2022/01/07 05:00:37;;;;;;;14.98;7.15;;;-2.00;99.90;;;;;;1966852;72;21520;-69
2022/01/07 05:03:03;;;;;;;13.32;7.90;;;-1.90;99.90;;;;;;1969921;70;21173;-69
2022/01/07 05:05:29;;;;;;;12.45;7.37;;;-1.90;99.90;;;;;;1979716;70;21031;-69
2022/01/07 05:07:55;;;;;;;15.98;8.18;;;-1.90;99.90;;;;;;1969135;72;21150;-68
2022/01/07 05:10:21;;;;;;;11.12;7.50;;;-1.90;99.90;;;;;;1970665;71;21047;-71
2022/01/07 05:12:47;;;;;;;18.65;8.08;;;-1.90;99.90;;;;;;1979411;70;21075;-71
2022/01/07 05:15:13;;;;;;;14.93;8.08;;;-1.90;99.90;;;;;;1978136;71;21126;-69
2022/01/07 05:17:39;;;;;;;17.20;8.20;;;-1.90;99.90;;;;;;1970956;71;21053;-69
2022/01/07 05:20:05;;;;;;;10.63;7.72;;;-1.90;99.90;;;;;;1968224;71;21157;-68
2022/01/07 05:22:32;;;;;;;12.58;7.40;;;-1.90;99.90;;;;;;1971038;70;21314;-70
2022/01/07 05:24:58;;;;;;;13.88;8.08;;;-1.90;99.90;;;;;;1981550;70;21028;-69
2022/01/07 05:27:24;;;;;;;11.28;7.42;;;-1.90;99.90;;;;;;1963695;71;21059;-70
2022/01/07 05:29:50;;;;;;;15.58;8.00;;;-1.80;99.90;;;;;;1976122;72;21163;-71
2022/01/07 05:32:16;;;;;;;13.08;8.23;;;-1.80;99.90;;;;;;1960359;73;21129;-70
2022/01/07 05:34:42;;;;;;;14.35;8.43;;;-1.70;99.90;;;;;;1960230;73;21132;-69
2022/01/07 05:37:10;;;;;;;12.33;7.62;;;-1.70;99.90;;;;;;1974236;70;21060;-69
2022/01/07 05:39:36;;;;;;;9.65;7.25;;;-1.60;99.90;;;;;;1975995;72;21071;-69
2022/01/07 05:42:02;;;;;;;16.48;8.48;;;-1.70;99.90;;;;;;1964014;70;21072;-69
2022/01/07 05:44:28;;;;;;;12.50;8.00;;;-1.70;99.90;;;;;;1960544;73;21125;-69
2022/01/07 05:46:55;;;;;;;10.40;7.58;;;-1.60;99.90;;;;;;1971875;71;21149;-69
2022/01/07 05:49:21;;;;;;;11.18;7.80;;;-1.60;99.90;;;;;;1985811;71;21067;-70
2022/01/07 05:51:47;;;;;;;13.95;8.00;;;-1.60;99.90;;;;;;1977081;72;21148;-69
2022/01/07 05:54:13;;;;;;;9.48;6.87;;;-1.60;99.90;;;;;;1979751;71;21141;-69
2022/01/07 05:56:39;;;;;;;11.97;7.65;;;-1.60;99.90;;;;;;1974065;70;21111;-71
2022/01/07 05:59:05;;;;;;;13.40;7.90;;;-1.50;99.90;;;;;;1980913;71;21120;-69
2022/01/07 06:01:32;;;;;;;13.38;7.80;;;-1.60;99.90;;;;;;1976096;71;21066;-68
2022/01/07 06:03:58;;;;;;;12.25;7.35;;;-1.50;99.90;;;;;;1977736;70;21062;-69
2022/01/07 06:06:24;;;;;;;12.18;8.48;;;-1.50;99.90;;;;;;1968634;70;21479;-69
2022/01/07 06:08:50;;;;;;;9.60;7.08;;;-1.50;99.90;;;;;;1977171;71;21521;-69
2022/01/07 06:11:17;;;;;;;13.95;8.78;;;-1.50;99.90;;;;;;1977472;72;21557;-69
2022/01/07 06:13:43;;;;;;;12.43;6.95;;;-1.50;99.90;;;;;;1972826;70;21075;-69
2022/01/07 06:16:10;;;;;;;13.28;7.85;;;-1.40;99.90;;;;;;1972600;70;21082;-69
2022/01/07 06:18:43;;;;;;;12.58;7.87;;;-1.40;99.90;;;;;;1969865;72;21132;-69
2022/01/07 06:21:03;;;;;;;10.65;7.22;;;-1.40;99.90;;;;;;1970137;72;21080;-69
2022/01/07 06:23:30;;;;;;;12.18;7.60;;;-1.40;99.90;;;;;;1966185;71;21075;-69
2022/01/07 06:25:56;;;;;;;11.70;7.20;;;-1.40;99.90;;;;;;1988934;72;21055;-69
2022/01/07 06:28:24;;;;;;;10.88;6.80;;;-1.40;99.90;;;;;;1977152;71;21071;-68
2022/01/07 06:30:50;;;;;;;13.85;7.05;;;-1.30;99.90;;;;;;1974235;72;21135;-69
2022/01/07 06:33:16;;;;;;;14.10;6.95;;;-1.40;99.90;;;;;;1973980;70;21049;-69
2022/01/07 06:35:42;;;;;;;10.82;7.20;;;-1.30;99.90;;;;;;1976722;72;21063;-69
2022/01/07 06:38:08;;;;;;;9.78;6.85;;;-1.30;99.90;;;;;;1973172;72;21081;-71
2022/01/07 06:40:34;;;;;;;15.75;7.97;;;-1.40;99.90;;;;;;1975645;71;21117;-69
2022/01/07 06:43:00;;;;;;;9.13;6.60;;;-1.40;99.90;;;;;;1965093;72;21059;-68
2022/01/07 06:45:26;;;;;;;9.43;6.58;;;-1.40;99.90;;;;;;1977087;71;21154;-70
2022/01/07 06:47:53;;;;;;;16.32;7.30;;;-1.40;99.90;;;;;;1983646;70;21067;-72
2022/01/07 06:50:19;;;;;;;14.90;7.12;;;-1.50;99.90;;;;;;1969324;70;21067;-70
2022/01/07 06:52:45;;;;;;;13.55;6.12;;;-1.50;99.90;;;;;;1972962;71;21448;-69
2022/01/07 06:55:11;;;;;;;12.18;6.58;;;-1.50;99.90;;;;;;1967271;70;21509;-69
2022/01/07 06:57:37;;;;;;;9.03;6.35;;;-1.50;99.90;;;;;;1983256;71;21494;-70
2022/01/07 07:00:03;;;;;;;9.15;6.10;;;-1.40;99.90;;;;;;1977719;72;21491;-69
2022/01/07 07:02:29;;;;;;;10.23;6.85;;;-1.40;99.90;;;;;;1964721;70;21045;-69
2022/01/07 07:04:55;;;;;;;9.03;6.00;;;-1.40;99.90;;;;;;1980071;70;21125;-69
2022/01/07 07:07:22;;;;;;;12.05;6.97;;;-1.30;99.90;;;;;;1972986;72;21169;-69
2022/01/07 07:09:48;;;;;;;10.70;6.22;;;-1.30;99.90;;;;;;1980661;72;21142;-71
2022/01/07 07:12:15;;;;;;;11.73;7.17;;;-1.40;99.90;;;;;;1973600;71;21058;-69
2022/01/07 07:14:41;;;;;;;10.05;6.97;;;-1.50;99.90;;;;;;1987136;70;21089;-69
2022/01/07 07:17:07;;;;;;;9.63;6.22;;;-1.50;99.90;;;;;;1984371;70;21058;-71
2022/01/07 07:19:33;;;;;;;12.63;7.15;;;-1.60;99.90;;;;;;1978892;71;21120;-70
2022/01/07 07:21:59;;;;;;;11.03;6.20;;;-1.60;99.90;;;;;;1967023;72;21149;-70
2022/01/07 07:24:25;;;;;;;6.72;4.87;;;-1.50;99.90;;;;;;1973953;72;21153;-71
2022/01/07 07:26:51;;;;;;;8.03;5.60;;;-1.50;99.90;;;;;;1965441;71;21032;-71
2022/01/07 07:29:18;;;;;;;10.13;6.30;;;-1.50;99.90;;;;;;1980074;71;21190;-70
2022/01/07 07:31:48;;;;;;;9.08;6.17;;;-1.50;99.90;;;;;;1968561;70;21138;-72
2022/01/07 07:34:43;;;;;;;7.97;6.15;;;-1.40;99.90;;;;;;1967159;71;21157;-69
2022/01/07 07:36:48;;;;;;;10.15;6.00;;;-1.40;99.90;;;;;;1965611;71;21057;-70
2022/01/07 07:39:14;;;;;;;7.87;6.00;;;-1.30;99.90;;;;;;1985719;72;21024;-70
2022/01/07 07:41:41;;;;;;;10.68;6.25;;;-1.20;99.90;;;;;;1969578;71;21649;-70
2022/01/07 07:44:07;;;;;;;12.23;5.85;;;-1.30;99.90;;;;;;1975413;71;21150;-68
2022/01/07 07:46:33;;;;;;;8.50;5.62;;;-1.30;99.90;;;;;;1982981;72;21058;-71
2022/01/07 07:49:00;;;;;;;10.72;5.90;;;-1.20;99.90;;;;;;1974290;70;21149;-69
2022/01/07 07:51:26;;;;;;;9.05;4.87;;;-1.10;99.90;;;;;;1972604;70;21261;-71
2022/01/07 07:53:52;;;;;;;10.95;5.40;;;-1.10;99.90;;;;;;1969542;70;21455;-69
2022/01/07 07:56:18;;;;;;;7.78;5.20;;;-0.90;99.90;;;;;;1980378;71;21525;-71
2022/01/07 07:58:44;;;;;;;11.10;5.97;;;-0.90;99.90;;;;;;1975226;72;21477;-69
2022/01/07 08:01:10;;;;;;;8.53;5.50;;;-0.90;99.90;;;;;;1960236;71;21544;-71
2022/01/07 08:03:36;;;;;;;9.53;5.87;;;-0.90;99.90;;;;;;1972480;72;21543;-69
2022/01/07 08:06:03;;;;;;;9.18;6.05;;;-0.80;99.90;;;;;;1974208;71;21207;-70
2022/01/07 08:08:29;;;;;;;9.20;5.78;;;-0.80;99.90;;;;;;1965892;70;21075;-70
2022/01/07 08:10:58;;;;;;;8.48;5.15;;;-0.80;99.90;;;;;;1977958;70;21141;-70
2022/01/07 08:13:30;;;;;;;9.40;5.43;;;-0.70;99.90;;;;;;1965087;72;21410;-69
2022/01/07 08:15:59;;;;;;;9.70;5.67;;;-0.70;99.90;;;;;;1962791;71;21229;-73
2022/01/07 08:18:25;;;;;;;15.30;6.28;;;-0.60;99.90;;;;;;1982850;72;21058;-76
2022/01/07 08:20:51;;;;;;;16.17;7.70;;;-0.60;99.90;;;;;;1978583;71;21111;-79
2022/01/07 08:23:20;;;;;;;15.95;6.97;;;-0.50;99.90;;;;;;1964647;71;21075;-78
2022/01/07 08:25:45;;;;;;;13.93;6.78;;;-0.50;99.90;;;;;;1966990;71;21488;-74
2022/01/07 08:28:13;;;;;;;6.85;5.85;;;-0.50;99.90;;;;;;1969999;72;21469;-74
2022/01/07 08:34:53;;;;;;;10.80;6.12;;;-0.60;99.90;;;;;;1977194;71;21075;-74
2022/01/07 08:35:52;;;;;;;12.10;7.08;;;-0.60;99.90;;;;;;1978890;71;21168;-76
2022/01/07 08:38:18;;;;;;;15.05;7.17;;;-0.60;99.90;;;;;;1974973;72;21552;-76
2022/01/07 08:40:44;;;;;;;13.48;6.87;;;-0.50;99.90;;;;;;1985840;70;21593;-76
2022/01/07 08:43:10;;;;;;;14.13;7.67;;;-0.50;99.90;;;;;;1962846;72;21457;-77
2022/01/07 08:45:36;;;;;;;11.85;6.50;;;-0.50;99.90;;;;;;1975548;70;21502;-78
2022/01/07 08:48:02;;;;;;;18.70;6.95;;;-0.50;99.90;;;;;;1973027;72;21483;-78
2022/01/07 08:50:29;;;;;;;14.43;7.45;;;-0.50;99.90;;;;;;1973270;71;21067;-76
2022/01/07 08:53:00;;;;;;;11.88;6.97;;;-0.50;99.90;;;;;;1975984;71;21058;-76
2022/01/07 08:55:22;;;;;;;26.80;8.03;;;-0.50;99.90;;;;;;1972664;71;21182;-77
2022/01/07 08:57:49;;;;;;;9.48;6.90;;;-0.40;99.90;;;;;;1976567;71;21079;-77
2022/01/07 09:00:15;;;;;;;11.83;7.97;;;-0.50;99.90;;;;;;1972601;70;21063;-76
2022/01/07 09:02:41;;;;;;;20.57;8.43;;;-0.50;99.90;;;;;;1973263;73;21147;-77
2022/01/07 09:05:07;;;;;;;12.82;7.05;;;-0.50;99.90;;;;;;1972837;71;21525;-76
2022/01/07 09:07:34;;;;;;;11.93;7.22;;;-0.40;99.90;;;;;;1975429;70;21218;-77
2022/01/07 09:10:00;;;;;;;15.78;7.70;;;-0.40;99.90;;;;;;1977773;71;21201;-78
2022/01/07 09:12:26;;;;;;;10.95;7.10;;;-0.30;99.90;;;;;;1982568;70;21132;-77
2022/01/07 09:14:52;;;;;;;21.42;8.03;;;-0.30;99.90;;;;;;1939694;72;21074;-78
2022/01/07 09:17:18;;;;;;;11.12;7.37;;;-0.20;99.90;;;;;;1930808;72;21175;-77
2022/01/07 09:19:44;;;;;;;10.40;6.58;;;-0.10;99.90;;;;;;1917743;72;21143;-78
2022/01/07 09:22:11;;;;;;;10.60;6.85;;;-0.10;99.90;;;;;;1925999;72;21072;-77
2022/01/07 09:24:37;;;;;;;14.83;7.12;;;-0.10;99.90;;;;;;1971692;72;21201;-80
2022/01/07 09:27:03;;;;;;;11.83;6.70;;;0.00;99.90;;;;;;1978249;71;21125;-78
2022/01/07 09:29:29;;;;;;;9.45;6.45;;;0.00;99.90;;;;;;1984111;70;21120;-78
2022/01/07 09:31:55;;;;;;;10.20;6.85;;;0.10;99.90;;;;;;1976764;71;21060;-78
2022/01/07 09:34:21;;;;;;;10.20;6.65;;;0.10;99.90;;;;;;1984823;71;21094;-76
2022/01/07 09:36:47;;;;;;;9.20;7.05;;;0.00;99.90;;;;;;1975158;71;21059;-76
2022/01/07 09:39:13;;;;;;;10.90;7.03;;;0.10;99.90;;;;;;1934482;71;27631;-78
2022/01/07 09:43:22;;;;;;;15.50;6.67;;;0.10;99.90;;;;;;1825544;76;105981;-76
2022/01/07 09:45:50;;;;;;;11.63;6.75;;;0.10;99.90;;;;;;1823799;78;21096;-75
2022/01/07 09:48:18;;;;;;;12.60;6.95;;;0.30;99.90;;;;;;1838091;78;21047;-83
2022/01/07 09:50:45;;;;;;;14.65;6.58;;;0.30;99.90;;;;;;1827472;78;21160;-76
2022/01/07 09:53:15;;;;;;;9.23;6.70;;;0.40;99.90;;;;;;1820693;77;21152;-76
2022/01/07 09:55:43;;;;;;;10.45;6.75;;;0.40;99.90;;;;;;1818476;77;21084;-76
2022/01/07 09:58:13;;;;;;;8.95;6.40;;;0.50;99.90;;;;;;1816811;77;21069;-77
2022/01/07 10:00:42;;;;;;;9.95;6.72;;;0.40;99.90;;;;;;1818402;77;21088;-77
2022/01/07 10:03:11;;;;;;;11.83;6.77;;;0.40;99.90;;;;;;1821532;77;21087;-76
2022/01/07 10:05:49;;;;;;;10.15;6.67;;;0.50;99.90;;;;;;1826560;78;21086;-76
2022/01/07 10:08:22;;;;;;;10.35;7.20;;;0.60;99.90;;;;;;1818290;77;21099;-77
2022/01/07 10:11:14;;;;;;;10.95;6.62;;;0.60;99.90;;;;;;1817407;77;21098;-76
2022/01/07 10:13:48;;;;;;;10.63;6.60;;;0.70;99.90;;;;;;1826463;77;21093;-77
2022/01/07 10:16:22;;;;;;;13.70;7.12;;;0.70;99.90;;;;;;1825529;78;21153;-75
2022/01/07 10:18:50;;;;;;;14.80;7.60;;;0.70;99.90;;;;;;1827228;77;21178;-76
2022/01/07 10:21:18;;;;;;;10.85;7.03;;;0.70;99.90;;;;;;1814979;77;21473;-79
2022/01/07 10:23:45;;;;;;;14.85;7.35;;;0.70;99.90;;;;;;1824023;78;21459;-80
2022/01/07 10:26:17;;;;;;;16.27;7.55;;;0.80;99.90;;;;;;1822990;79;21035;-79
2022/01/07 10:28:47;;;;;;;11.93;7.65;;;0.90;99.90;;;;;;1817690;77;21160;-78
2022/01/07 10:31:24;;;;;;;11.20;7.75;;;1.00;99.90;;;;;;1813908;77;21587;-80
2022/01/07 10:33:53;;;;;;;11.68;7.22;;;1.00;99.90;;;;;;1815719;77;21065;-77
2022/01/07 10:36:24;;;;;;;10.40;7.35;;;1.10;99.90;;;;;;1817441;77;21169;-77
2022/01/07 10:38:53;;;;;;;9.73;6.75;;;1.30;99.90;;;;;;1827266;78;21416;-79
2022/01/07 10:41:20;;;;;;;9.88;6.92;;;1.30;99.90;;;;;;1828359;77;21098;-78
2022/01/07 10:43:48;;;;;;;14.05;8.25;;;1.20;99.90;;;;;;1818296;77;21153;-76
2022/01/07 10:46:19;;;;;;;13.32;8.15;;;1.20;99.90;;;;;;1819856;77;21517;-74
2022/01/07 10:48:53;;;;;;;16.05;7.72;;;1.30;99.90;;;;;;1817177;77;21202;-77
2022/01/07 10:51:23;;;;;;;9.95;7.00;;;1.40;99.90;;;;;;1811005;77;21519;-81
2022/01/07 10:53:57;;;;;;;15.30;8.40;;;1.40;99.90;;;;;;1820226;77;21160;-76
2022/01/07 10:56:34;;;;;;;13.20;8.00;;;1.40;99.90;;;;;;1820133;77;21721;-77
2022/01/07 10:59:06;;;;;;;11.40;7.03;;;1.30;99.90;;;;;;1818856;77;21146;-80
2022/01/07 11:01:48;;;;;;;8.00;6.47;;;1.20;99.90;;;;;;1814684;77;21144;-78
2022/01/07 11:04:21;;;;;;;13.80;7.12;;;1.30;99.90;;;;;;1820031;77;21542;-78
2022/01/07 11:06:51;;;;;;;12.00;7.83;;;1.40;99.90;;;;;;1810601;77;21217;-80
2022/01/07 11:09:19;;;;;;;10.30;6.83;;;1.20;99.90;;;;;;1820081;77;21105;-82
2022/01/07 11:11:49;;;;;;;12.45;7.90;;;1.10;99.90;;;;;;1798512;77;21235;-79
2022/01/07 11:14:25;;;;;;;11.90;7.42;;;1.10;99.90;;;;;;1818001;77;21517;-79
2022/01/07 11:16:53;;;;;;;9.75;7.47;;;1.00;99.90;;;;;;1822485;77;21093;-80
2022/01/07 11:19:24;;;;;;;11.73;8.15;;;1.00;99.90;;;;;;1821322;77;21090;-80
2022/01/07 11:21:53;;;;;;;15.85;8.18;;;1.00;99.90;;;;;;1821710;77;21078;-79
2022/01/07 11:24:47;;;;;;;13.32;7.62;;;1.00;99.90;;;;;;1818210;77;21071;-78
2022/01/07 11:27:25;;;;;;;15.63;9.00;;;0.90;99.90;;;;;;1827214;78;21577;-78
2022/01/07 11:30:03;;;;;;;10.55;7.58;;;0.90;99.90;;;;;;1824173;78;21081;-76
2022/01/07 11:32:34;;;;;;;11.35;7.90;;;0.80;99.90;;;;;;1821252;77;21502;-78
2022/01/07 11:35:23;;;;;;;13.15;8.73;;;0.90;99.90;;;;;;1825114;77;21136;-77
2022/01/07 11:37:52;;;;;;;13.57;8.50;;;0.90;99.90;;;;;;1818351;77;21102;-76
2022/01/07 11:40:41;;;;;;;15.05;8.35;;;0.90;99.90;;;;;;1783633;77;21471;-75
2022/01/07 11:43:20;;;;;;;14.23;8.95;;;0.90;99.90;;;;;;1818422;77;21082;-79
2022/01/07 11:45:47;;;;;;;15.03;9.88;;;0.80;99.90;;;;;;1814952;77;21229;-73
2022/01/07 11:48:26;;;;;;;13.75;9.08;;;0.90;99.90;;;;;;1817153;77;21244;-75
2022/01/07 11:50:59;;;;;;;12.78;8.78;;;1.00;99.90;;;;;;1826172;77;21090;-76
2022/01/07 11:53:38;;;;;;;17.10;9.23;;;1.00;99.90;;;;;;1823710;78;21046;-74
2022/01/07 11:56:05;;;;;;;14.20;9.13;;;1.10;99.90;;;;;;1818808;77;21228;-79
2022/01/07 11:58:47;;;;;;;12.73;8.45;;;1.00;99.90;;;;;;1828521;78;21104;-74
2022/01/07 12:01:25;;;;;;;13.18;8.58;;;1.20;99.90;;;;;;1817442;77;21462;-75
2022/01/07 12:03:53;;;;;;;21.53;9.77;;;1.20;99.90;;;;;;1817191;77;21080;-81
2022/01/07 12:06:27;;;;;;;10.98;8.73;;;1.20;99.90;;;;;;1814677;77;21254;-80
2022/01/07 12:09:09;;;;;;;13.93;9.50;;;1.30;99.90;;;;;;1822203;79;21121;-84
2022/01/07 12:11:48;;;;;;;15.48;10.38;;;1.20;99.90;;;;;;1815212;77;21080;-81
2022/01/07 12:14:18;;;;;;;15.30;10.13;;;1.20;99.90;;;;;;1821306;77;21154;-85
2022/01/07 12:16:46;;;;;;;13.38;9.00;;;1.30;99.90;;;;;;1823951;77;21159;-87
2022/01/07 12:19:21;;;;;;;12.28;8.55;;;1.30;99.90;;;;;;1786674;78;21507;-82
2022/01/07 12:21:53;;;;;;;15.48;9.95;;;1.30;99.90;;;;;;1824856;78;21227;-81
2022/01/07 12:24:31;;;;;;;15.13;10.05;;;1.40;99.90;;;;;;1779381;77;21509;-80
2022/01/07 12:27:18;;;;;;;12.58;10.00;;;1.30;99.90;;;;;;1821523;77;21487;-78
2022/01/07 12:29:45;;;;;;;13.22;9.53;;;1.50;99.90;;;;;;1819975;77;21094;-80
2022/01/07 12:32:13;;;;;;;12.07;9.03;;;1.50;99.90;;;;;;1826186;78;21090;-80
2022/01/07 12:34:45;;;;;;;13.90;8.88;;;1.50;99.90;;;;;;1826238;78;21059;-79
2022/01/07 12:37:18;;;;;;;13.45;9.00;;;1.50;99.90;;;;;;1828218;78;21117;-77
2022/01/07 12:39:48;;;;;;;14.23;9.58;;;1.70;99.90;;;;;;1823535;77;21086;-72
2022/01/07 12:42:15;;;;;;;12.78;8.80;;;1.70;99.90;;;;;;1824583;78;21148;-78
2022/01/07 12:44:46;;;;;;;14.35;8.85;;;1.70;99.90;;;;;;1825360;77;21077;-76